createdAt,value
2018-05-27T00:01:10.403Z,100624.58
2018-05-27T00:03:38.372Z,100616.55
2018-05-27T00:06:06.340Z,100608.69
2018-05-27T00:08:34.208Z,100603.14
2018-05-27T00:11:01.970Z,100590.69
2018-05-27T00:13:29.838Z,100585.31
2018-05-27T00:15:57.556Z,100576.08
2018-05-27T00:18:25.367Z,100583.20
2018-05-27T00:20:53.130Z,100578.69
2018-05-27T00:23:20.896Z,100581.20
2018-05-27T00:25:48.599Z,100578.07
2018-05-27T00:28:16.321Z,100578.18
2018-05-27T00:30:44.858Z,100577.98
2018-05-27T00:33:12.670Z,100587.27
2018-05-27T00:35:40.539Z,100585.27
2018-05-27T00:38:08.198Z,100586.42
2018-05-27T00:40:35.859Z,100579.93
2018-05-27T00:43:03.568Z,100588.20
2018-05-27T00:45:31.385Z,100581.39
2018-05-27T00:47:59.154Z,100584.45
2018-05-27T00:50:27.022Z,100584.02
2018-05-27T00:52:54.786Z,100586.75
2018-05-27T00:55:22.501Z,100575.44
2018-05-27T00:57:50.320Z,100569.50
2018-05-27T01:00:17.977Z,100573.46
2018-05-27T01:02:45.746Z,100569.28
2018-05-27T01:05:13.509Z,100565.72
2018-05-27T01:07:41.212Z,100566.35
2018-05-27T01:10:09.035Z,100565.83
2018-05-27T01:12:36.799Z,100565.74
2018-05-27T01:15:04.564Z,100570.22
2018-05-27T01:17:32.279Z,100576.80
2018-05-27T01:20:00.095Z,100568.77
2018-05-27T01:22:27.819Z,100573.98
2018-05-27T01:24:55.520Z,100578.59
2018-05-27T01:27:23.284Z,100578.71
2018-05-27T01:29:50.945Z,100578.50
2018-05-27T01:32:18.656Z,100572.13
2018-05-27T01:34:46.580Z,100570.13
2018-05-27T01:37:14.346Z,100572.39
2018-05-27T01:39:42.108Z,100567.09
2018-05-27T01:42:09.827Z,100562.27
2018-05-27T01:44:37.593Z,100550.46
2018-05-27T01:47:05.401Z,100547.25
2018-05-27T01:49:33.181Z,100535.20
2018-05-27T01:52:01.040Z,100535.94
2018-05-27T01:54:28.858Z,100524.98
2018-05-27T01:56:56.673Z,100523.34
2018-05-27T01:59:24.494Z,100521.59
2018-05-27T02:01:52.301Z,100529.60
2018-05-27T02:04:20.004Z,100522.84
2018-05-27T02:06:47.824Z,100526.99
2018-05-27T02:09:15.583Z,100527.91
2018-05-27T02:11:43.304Z,100533.95
2018-05-27T02:14:11.122Z,100531.69
2018-05-27T02:16:38.837Z,100536.84
2018-05-27T02:19:06.648Z,100534.73
2018-05-27T02:21:34.413Z,100529.37
2018-05-27T02:24:02.281Z,100527.91
2018-05-27T02:26:30.007Z,100535.31
2018-05-27T02:28:57.747Z,100522.58
2018-05-27T02:31:25.373Z,100521.02
2018-05-27T02:33:53.081Z,100525.77
2018-05-27T02:36:20.792Z,100519.89
2018-05-27T02:38:48.446Z,100517.72
2018-05-27T02:41:16.182Z,100514.80
2018-05-27T02:43:43.925Z,100517.09
2018-05-27T02:46:11.742Z,100516.16
2018-05-27T02:48:39.515Z,100522.84
2018-05-27T02:51:07.171Z,100522.30
2018-05-27T02:53:34.943Z,100517.18
2018-05-27T02:56:02.812Z,100514.70
2018-05-27T02:58:30.677Z,100514.64
2018-05-27T03:00:58.439Z,100509.53
2018-05-27T03:03:26.204Z,100506.42
2018-05-27T03:05:53.927Z,100503.69
2018-05-27T03:08:21.630Z,100508.17
2018-05-27T03:10:49.386Z,100498.91
2018-05-27T03:13:17.165Z,100496.16
2018-05-27T03:15:44.928Z,100491.18
2018-05-27T03:18:12.686Z,100498.05
2018-05-27T03:20:40.453Z,100499.68
2018-05-27T03:23:08.217Z,100498.11
2018-05-27T03:25:35.981Z,100496.90
2018-05-27T03:28:03.747Z,100503.23
2018-05-27T03:30:31.471Z,100495.04
2018-05-27T03:32:59.277Z,100498.42
2018-05-27T03:35:27.041Z,100496.66
2018-05-27T03:37:54.811Z,100494.05
2018-05-27T03:40:22.665Z,100492.06
2018-05-27T03:42:50.436Z,100500.94
2018-05-27T03:45:18.303Z,100505.14
2018-05-27T03:47:46.068Z,100501.80
2018-05-27T03:50:13.847Z,100502.28
2018-05-27T03:52:41.492Z,100506.01
2018-05-27T03:55:09.217Z,100511.05
2018-05-27T03:57:37.026Z,100509.91
2018-05-27T04:00:04.725Z,100516.58
2018-05-27T04:02:32.553Z,100509.55
2018-05-27T04:05:12.196Z,100509.91
2018-05-27T04:07:51.940Z,100507.45
2018-05-27T04:10:19.705Z,100508.52
2018-05-27T04:12:47.473Z,100519.16
2018-05-27T04:15:15.200Z,100522.72
2018-05-27T04:17:42.998Z,100516.33
2018-05-27T04:20:10.712Z,100516.44
2018-05-27T04:22:38.427Z,100515.40
2018-05-27T04:25:06.190Z,100513.83
2018-05-27T04:27:33.954Z,100512.05
2018-05-27T04:30:01.623Z,100521.97
2018-05-27T04:32:29.278Z,100513.33
2018-05-27T04:34:57.042Z,100516.77
2018-05-27T04:37:24.809Z,100522.11
2018-05-27T04:39:52.545Z,100528.27
2018-05-27T04:42:20.234Z,100528.98
2018-05-27T04:44:47.990Z,100526.98
2018-05-27T04:47:15.721Z,100531.41
2018-05-27T04:49:43.425Z,100523.89
2018-05-27T04:52:11.087Z,100525.34
2018-05-27T04:54:38.852Z,100526.09
2018-05-27T04:57:06.620Z,100535.23
2018-05-27T04:59:34.277Z,100532.13
2018-05-27T05:02:02.044Z,100530.30
2018-05-27T05:04:29.809Z,100533.55
2018-05-27T05:06:57.675Z,100529.25
2018-05-27T05:09:25.413Z,100535.82
2018-05-27T05:11:53.204Z,100538.73
2018-05-27T05:14:20.907Z,100541.14
2018-05-27T05:16:48.630Z,100546.22
2018-05-27T05:19:16.392Z,100548.08
2018-05-27T05:21:44.160Z,100557.14
2018-05-27T05:24:11.821Z,100553.76
2018-05-27T05:26:39.587Z,100550.60
2018-05-27T05:29:07.310Z,100553.38
2018-05-27T05:31:35.116Z,100556.61
2018-05-27T05:34:02.819Z,100549.27
2018-05-27T05:36:30.636Z,100556.76
2018-05-27T05:38:58.353Z,100557.22
2018-05-27T05:41:26.379Z,100561.32
2018-05-27T05:43:54.147Z,100563.59
2018-05-27T05:46:21.909Z,100564.23
2018-05-27T05:48:49.673Z,100568.02
2018-05-27T05:51:17.545Z,100565.06
2018-05-27T05:53:45.305Z,100566.47
2018-05-27T05:56:13.123Z,100570.12
2018-05-27T05:58:40.939Z,100568.17
2018-05-27T06:01:08.710Z,100565.98
2018-05-27T06:03:36.357Z,100571.73
2018-05-27T06:06:04.128Z,100561.23
2018-05-27T06:08:31.891Z,100560.12
2018-05-27T06:10:59.758Z,100562.58
2018-05-27T06:13:27.469Z,100564.89
2018-05-27T06:15:55.289Z,100559.83
2018-05-27T06:18:22.949Z,100562.77
2018-05-27T06:20:50.668Z,100561.24
2018-05-27T06:23:18.481Z,100563.09
2018-05-27T06:25:46.223Z,100561.63
2018-05-27T06:28:14.008Z,100559.14
2018-05-27T06:30:41.671Z,100558.09
2018-05-27T06:33:09.537Z,100565.29
2018-05-27T06:35:37.245Z,100565.84
2018-05-27T06:38:04.963Z,100568.06
2018-05-27T06:40:32.680Z,100568.61
2018-05-27T06:43:00.391Z,100568.14
2018-05-27T06:45:28.059Z,100574.55
2018-05-27T06:47:55.919Z,100575.27
2018-05-27T06:50:23.622Z,100582.92
2018-05-27T06:52:51.344Z,100587.93
2018-05-27T06:55:19.111Z,100581.62
2018-05-27T06:57:46.824Z,100583.75
2018-05-27T07:00:14.536Z,100588.80
2018-05-27T07:02:42.198Z,100585.23
2018-05-27T07:05:09.965Z,100590.46
2018-05-27T07:07:37.832Z,100581.18
2018-05-27T07:10:05.585Z,100578.98
2018-05-27T07:12:33.360Z,100585.37
2018-05-27T07:15:01.021Z,100584.11
2018-05-27T07:17:28.785Z,100588.22
2018-05-27T07:19:56.551Z,100596.87
2018-05-27T07:22:24.423Z,100594.64
2018-05-27T07:24:52.081Z,100599.48
2018-05-27T07:27:19.805Z,100587.41
2018-05-27T07:29:47.499Z,100595.83
2018-05-27T07:32:15.294Z,100587.78
2018-05-27T07:34:43.137Z,100592.42
2018-05-27T07:37:10.904Z,100591.71
2018-05-27T07:39:38.665Z,100589.45
2018-05-27T07:42:06.341Z,100588.25
2018-05-27T07:44:34.196Z,100584.22
2018-05-27T07:47:01.961Z,100584.60
2018-05-27T07:49:29.684Z,100584.54
2018-05-27T07:51:57.489Z,100591.45
2018-05-27T07:54:25.356Z,100587.59
2018-05-27T07:56:53.121Z,100589.36
2018-05-27T07:59:20.783Z,100580.42
2018-05-27T08:01:48.547Z,100584.12
2018-05-27T08:04:16.312Z,100588.59
2018-05-27T08:06:44.081Z,100583.08
2018-05-27T08:09:11.973Z,100574.59
2018-05-27T08:11:39.665Z,100581.62
2018-05-27T08:14:07.473Z,100568.59
2018-05-27T08:16:35.239Z,100573.71
2018-05-27T08:19:03.106Z,100563.39
2018-05-27T08:21:30.971Z,100563.53
2018-05-27T08:23:58.737Z,100564.86
2018-05-27T08:26:26.604Z,100559.45
2018-05-27T08:28:54.310Z,100561.28
2018-05-27T08:31:22.134Z,100561.80
2018-05-27T08:33:49.899Z,100561.79
2018-05-27T08:36:17.770Z,100565.99
2018-05-27T08:38:45.476Z,100559.77
2018-05-27T08:41:13.299Z,100566.23
2018-05-27T08:43:40.957Z,100560.30
2018-05-27T08:46:08.722Z,100567.86
2018-05-27T08:48:36.485Z,100568.73
2018-05-27T08:51:04.250Z,100570.64
2018-05-27T08:53:32.114Z,100569.45
2018-05-27T08:55:59.799Z,100578.48
2018-05-27T08:58:27.544Z,100578.25
2018-05-27T09:00:55.305Z,100583.75
2018-05-27T09:03:23.070Z,100588.09
2018-05-27T09:05:50.892Z,100588.18
2018-05-27T09:08:18.701Z,100591.23
2018-05-27T09:10:46.527Z,100591.66
2018-05-27T09:13:14.332Z,100594.78
2018-05-27T09:15:42.100Z,100590.76
2018-05-27T09:18:09.804Z,100597.95
2018-05-27T09:20:37.626Z,100593.06
2018-05-27T09:23:05.391Z,100593.74
2018-05-27T09:25:33.258Z,100597.14
2018-05-27T09:28:00.919Z,100601.05
2018-05-27T09:30:28.581Z,100604.88
2018-05-27T09:32:56.242Z,100605.56
2018-05-27T09:35:23.906Z,100615.38
2018-05-27T09:37:51.619Z,100610.66
2018-05-27T09:40:19.435Z,100606.91
2018-05-27T09:42:47.203Z,100610.03
2018-05-27T09:45:15.031Z,100605.48
2018-05-27T09:47:42.832Z,100602.30
2018-05-27T09:50:10.698Z,100601.72
2018-05-27T09:52:38.463Z,100598.48
2018-05-27T09:55:06.188Z,100605.63
2018-05-27T09:57:33.890Z,100599.55
2018-05-27T10:00:01.660Z,100586.75
2018-05-27T10:02:29.419Z,100590.62
2018-05-27T10:04:57.184Z,100592.60
2018-05-27T10:07:24.948Z,100583.23
2018-05-27T10:09:52.755Z,100589.52
2018-05-27T10:12:20.580Z,100584.87
2018-05-27T10:14:48.344Z,100587.77
2018-05-27T10:17:16.069Z,100591.93
2018-05-27T10:19:43.874Z,100586.36
2018-05-27T10:22:11.728Z,100579.48
2018-05-27T10:24:39.403Z,100574.88
2018-05-27T10:27:07.175Z,100580.80
2018-05-27T10:29:34.829Z,100573.71
2018-05-27T10:32:02.490Z,100571.75
2018-05-27T10:34:30.257Z,100569.24
2018-05-27T10:36:57.984Z,100564.75
2018-05-27T10:39:25.682Z,100555.12
2018-05-27T10:41:53.396Z,100547.75
2018-05-27T10:44:21.160Z,100544.78
2018-05-27T10:46:48.876Z,100541.33
2018-05-27T10:49:16.639Z,100530.88
2018-05-27T10:51:44.290Z,100526.17
2018-05-27T10:54:11.963Z,100525.13
2018-05-27T10:56:39.931Z,100518.34
2018-05-27T10:59:07.594Z,100513.00
2018-05-27T11:01:35.349Z,100520.51
2018-05-27T11:04:03.123Z,100513.42
2018-05-27T11:06:30.891Z,100507.77
2018-05-27T11:08:58.652Z,100506.72
2018-05-27T11:11:26.376Z,100506.49
2018-05-27T11:13:54.070Z,100498.84
2018-05-27T11:16:22.275Z,100496.61
2018-05-27T11:18:50.045Z,100490.25
2018-05-27T11:21:17.990Z,100495.63
2018-05-27T11:23:45.713Z,100502.97
2018-05-27T11:26:13.518Z,100491.75
2018-05-27T11:28:41.388Z,100489.59
2018-05-27T11:31:09.114Z,100488.97
2018-05-27T11:33:36.859Z,100487.98
2018-05-27T11:36:04.679Z,100487.69
2018-05-27T11:38:32.441Z,100487.03
2018-05-27T11:41:00.103Z,100488.28
2018-05-27T11:43:27.824Z,100493.72
2018-05-27T11:45:55.632Z,100500.42
2018-05-27T11:48:23.459Z,100487.05
2018-05-27T11:50:51.265Z,100485.46
2018-05-27T11:53:19.022Z,100486.73
2018-05-27T11:55:46.737Z,100478.84
2018-05-27T11:58:14.454Z,100483.70
2018-05-27T12:00:42.173Z,100478.75
2018-05-27T12:03:09.985Z,100481.13
2018-05-27T12:05:37.748Z,100480.64
2018-05-27T12:08:05.614Z,100477.60
2018-05-27T12:10:33.379Z,100471.81
2018-05-27T12:13:01.042Z,100469.72
2018-05-27T12:15:28.750Z,100466.20
2018-05-27T12:17:56.571Z,100465.11
2018-05-27T12:20:24.310Z,100464.56
2018-05-27T12:22:52.101Z,100463.59
2018-05-27T12:25:19.763Z,100458.62
2018-05-27T12:27:47.626Z,100455.85
2018-05-27T12:30:15.282Z,100446.19
2018-05-27T12:32:43.055Z,100443.88
2018-05-27T12:35:10.923Z,100444.91
2018-05-27T12:37:38.789Z,100440.69
2018-05-27T12:40:06.499Z,100443.58
2018-05-27T12:42:34.318Z,100443.15
2018-05-27T12:45:02.035Z,100444.39
2018-05-27T12:47:29.849Z,100442.53
2018-05-27T12:49:57.459Z,100449.76
2018-05-27T12:52:25.142Z,100439.92
2018-05-27T12:54:52.832Z,100432.55
2018-05-27T12:57:20.548Z,100428.69
2018-05-27T12:59:48.365Z,100436.97
2018-05-27T13:02:16.231Z,100431.69
2018-05-27T13:04:44.099Z,100422.72
2018-05-27T13:07:12.680Z,100425.33
2018-05-27T13:09:40.445Z,100421.06
2018-05-27T13:12:08.148Z,100407.53
2018-05-27T13:14:35.872Z,100402.22
2018-05-27T13:17:03.793Z,100399.73
2018-05-27T13:19:31.398Z,100400.23
2018-05-27T13:21:59.180Z,100398.82
2018-05-27T13:24:26.931Z,100394.14
2018-05-27T13:26:55.002Z,100396.14
2018-05-27T13:29:22.767Z,100395.88
2018-05-27T13:31:50.589Z,100381.00
2018-05-27T13:34:18.398Z,100378.90
2018-05-27T13:36:46.161Z,100379.98
2018-05-27T13:39:13.928Z,100388.11
2018-05-27T13:41:41.635Z,100384.69
2018-05-27T13:44:09.450Z,100388.24
2018-05-27T13:46:37.168Z,100379.63
2018-05-27T13:49:04.984Z,100376.56
2018-05-27T13:51:32.751Z,100376.73
2018-05-27T13:54:00.469Z,100375.73
2018-05-27T13:56:28.282Z,100370.88
2018-05-27T13:58:57.068Z,100363.84
2018-05-27T14:01:24.936Z,100365.48
2018-05-27T14:03:52.808Z,100364.55
2018-05-27T14:06:20.505Z,100369.34
2018-05-27T14:08:48.229Z,100381.41
2018-05-27T14:11:15.941Z,100381.22
2018-05-27T14:13:43.759Z,100379.07
2018-05-27T14:16:11.475Z,100380.30
2018-05-27T14:18:39.287Z,100374.64
2018-05-27T14:21:07.011Z,100372.23
2018-05-27T14:23:34.816Z,100358.50
2018-05-27T14:26:02.477Z,100352.22
2018-05-27T14:28:30.286Z,100352.46
2018-05-27T14:30:58.056Z,100361.76
2018-05-27T14:33:25.872Z,100371.06
2018-05-27T14:35:53.589Z,100381.16
2018-05-27T14:38:21.404Z,100381.83
2018-05-27T14:40:49.170Z,100374.88
2018-05-27T14:43:16.817Z,100372.33
2018-05-27T14:45:44.594Z,100369.66
2018-05-27T14:48:12.255Z,100369.52
2018-05-27T14:50:40.189Z,100368.91
2018-05-27T14:53:08.502Z,100371.16
2018-05-27T14:55:36.371Z,100373.05
2018-05-27T14:58:04.066Z,100379.09
2018-05-27T15:00:31.761Z,100379.52
2018-05-27T15:02:59.552Z,100378.45
2018-05-27T15:05:27.325Z,100366.51
2018-05-27T15:07:55.089Z,100365.20
2018-05-27T15:10:22.957Z,100365.83
2018-05-27T15:12:50.679Z,100370.55
2018-05-27T15:15:18.383Z,100380.47
2018-05-27T15:17:46.454Z,100388.56
2018-05-27T15:20:14.220Z,100374.67
2018-05-27T15:22:42.044Z,100361.72
2018-05-27T15:25:10.070Z,100344.63
2018-05-27T15:27:37.819Z,100344.08
2018-05-27T15:30:05.482Z,100340.84
2018-05-27T15:32:33.348Z,100348.06
2018-05-27T15:35:01.079Z,100360.11
2018-05-27T15:37:28.878Z,100364.80
2018-05-27T15:39:56.541Z,100363.52
2018-05-27T15:42:24.202Z,100361.16
2018-05-27T15:44:51.968Z,100355.19
2018-05-27T15:47:19.737Z,100361.22
2018-05-27T15:49:47.395Z,100349.89
2018-05-27T15:52:15.158Z,100349.52
2018-05-27T15:54:42.923Z,100356.94
2018-05-27T15:57:10.687Z,100356.23
2018-05-27T15:59:38.402Z,100357.56
2018-05-27T16:02:06.114Z,100357.07
2018-05-27T16:04:33.774Z,100367.48
2018-05-27T16:07:01.541Z,100364.58
2018-05-27T16:09:29.407Z,100359.13
2018-05-27T16:11:57.110Z,100351.38
2018-05-27T16:14:25.027Z,100353.13
2018-05-27T16:16:52.747Z,100350.42
2018-05-27T16:19:20.568Z,100352.41
2018-05-27T16:21:48.435Z,100345.57
2018-05-27T16:24:16.201Z,100348.05
2018-05-27T16:26:43.861Z,100350.30
2018-05-27T16:29:11.627Z,100347.24
2018-05-27T16:31:39.391Z,100350.11
2018-05-27T16:34:07.156Z,100356.80
2018-05-27T16:36:34.882Z,100345.40
2018-05-27T16:39:02.790Z,100344.55
2018-05-27T16:41:30.654Z,100335.11
2018-05-27T16:43:58.418Z,100330.55
2018-05-27T16:46:26.183Z,100320.11
2018-05-27T16:48:53.892Z,100321.52
2018-05-27T16:51:21.712Z,100317.19
2018-05-27T16:53:49.465Z,100315.33
2018-05-27T16:56:17.193Z,100304.20
2018-05-27T16:58:44.958Z,100296.88
2018-05-27T17:01:12.772Z,100294.56
2018-05-27T17:03:40.638Z,100285.26
2018-05-27T17:06:08.365Z,100280.56
2018-05-27T17:08:36.575Z,100277.02
2018-05-27T17:11:04.341Z,100276.14
2018-05-27T17:13:32.162Z,100268.23
2018-05-27T17:15:59.972Z,100264.09
2018-05-27T17:18:27.697Z,100256.68
2018-05-27T17:20:55.503Z,100252.17
2018-05-27T17:23:23.376Z,100239.57
2018-05-27T17:25:51.206Z,100235.86
2018-05-27T17:28:19.825Z,100226.60
2018-05-27T17:30:47.662Z,100224.75
2018-05-27T17:33:15.338Z,100216.13
2018-05-27T17:35:43.112Z,100218.39
2018-05-27T17:38:10.983Z,100219.82
2018-05-27T17:40:38.701Z,100234.00
2018-05-27T17:43:06.508Z,100238.45
2018-05-27T17:45:34.236Z,100238.95
2018-05-27T17:48:14.020Z,100232.89
2018-05-27T17:50:41.783Z,100233.91
2018-05-27T17:53:09.550Z,100226.85
2018-05-27T17:55:37.278Z,100240.49
2018-05-27T17:58:04.977Z,100241.56
2018-05-27T18:00:32.634Z,100244.42
2018-05-27T18:03:00.300Z,100241.19
2018-05-27T18:05:28.063Z,100248.61
2018-05-27T18:07:57.571Z,100251.42
2018-05-27T18:10:25.332Z,100258.24
2018-05-27T18:12:53.100Z,100260.41
2018-05-27T18:15:20.760Z,100270.86
2018-05-27T18:17:48.481Z,100264.92
2018-05-27T18:20:16.186Z,100275.66
2018-05-27T18:22:43.805Z,100280.41
2018-05-27T18:25:11.509Z,100285.10
2018-05-27T18:27:39.274Z,100288.46
2018-05-27T18:30:06.992Z,100305.02
2018-05-27T18:32:34.906Z,100307.64
2018-05-27T18:35:02.627Z,100327.53
2018-05-27T18:37:30.330Z,100313.94
2018-05-27T18:39:57.993Z,100310.02
2018-05-27T18:42:25.657Z,100315.22
2018-05-27T18:44:53.318Z,100328.24
2018-05-27T18:47:21.398Z,100325.66
2018-05-27T18:49:49.258Z,100319.48
2018-05-27T18:52:16.968Z,100311.13
2018-05-27T18:54:44.784Z,100316.22
2018-05-27T18:57:12.769Z,100324.47
2018-05-27T18:59:40.829Z,100329.13
2018-05-27T19:02:08.491Z,100327.05
2018-05-27T19:04:36.357Z,100341.04
2018-05-27T19:07:04.020Z,100345.42
2018-05-27T19:09:31.808Z,100351.47
2018-05-27T19:12:00.289Z,100364.63
2018-05-27T19:14:29.464Z,100365.83
2018-05-27T19:16:57.120Z,100368.87
2018-05-27T19:19:24.789Z,100373.22
2018-05-27T19:21:52.552Z,100387.91
2018-05-27T19:24:20.522Z,100384.77
2018-05-27T19:26:48.658Z,100408.21
2018-05-27T19:29:16.358Z,100405.30
2018-05-27T19:31:44.123Z,100414.83
2018-05-27T19:34:11.888Z,100413.41
2018-05-27T19:36:39.495Z,100417.19
2018-05-27T19:39:07.314Z,100418.89
2018-05-27T19:41:35.033Z,100435.47
2018-05-27T19:44:02.844Z,100442.46
2018-05-27T19:46:30.571Z,100443.22
2018-05-27T19:48:58.373Z,100460.58
2018-05-27T19:51:26.137Z,100456.74
2018-05-27T19:53:53.903Z,100457.10
2018-05-27T19:56:21.662Z,100458.02
2018-05-27T19:58:49.430Z,100463.64
2018-05-27T20:01:17.195Z,100473.88
2018-05-27T20:03:44.911Z,100477.37
2018-05-27T20:06:12.724Z,100471.52
2018-05-27T20:08:40.385Z,100475.64
2018-05-27T20:11:08.047Z,100479.80
2018-05-27T20:13:35.914Z,100478.36
2018-05-27T20:16:04.446Z,100464.44
2018-05-27T20:18:32.264Z,100464.41
2018-05-27T20:20:59.982Z,100456.84
2018-05-27T20:23:27.792Z,100448.64
2018-05-27T20:25:55.464Z,100452.59
2018-05-27T20:28:23.321Z,100455.88
2018-05-27T20:30:51.139Z,100445.62
2018-05-27T20:33:18.846Z,100449.69
2018-05-27T20:35:46.724Z,100446.84
2018-05-27T20:38:14.425Z,100452.73
2018-05-27T20:40:42.142Z,100449.90
2018-05-27T20:43:09.909Z,100448.27
2018-05-27T20:45:37.778Z,100440.87
2018-05-27T20:48:05.492Z,100445.98
2018-05-27T20:50:33.304Z,100435.98
2018-05-27T20:53:00.967Z,100441.42
2018-05-27T20:55:28.833Z,100444.47
2018-05-27T20:57:56.495Z,100453.19
2018-05-27T21:00:24.302Z,100453.34
2018-05-27T21:02:52.028Z,100458.38
2018-05-27T21:05:19.891Z,100456.58
2018-05-27T21:07:47.609Z,100450.09
2018-05-27T21:10:15.527Z,100442.98
2018-05-27T21:12:43.390Z,100448.80
2018-05-27T21:15:11.103Z,100441.85
2018-05-27T21:17:38.919Z,100448.22
2018-05-27T21:20:06.795Z,100449.28
2018-05-27T21:22:34.546Z,100446.87
2018-05-27T21:25:02.397Z,100446.21
2018-05-27T21:27:30.234Z,100435.34
2018-05-27T21:29:58.048Z,100430.44
2018-05-27T21:32:25.768Z,100436.65
2018-05-27T21:34:53.581Z,100429.42
2018-05-27T21:37:21.343Z,100417.73
2018-05-27T21:39:49.108Z,100405.77
2018-05-27T21:42:16.873Z,100398.38
2018-05-27T21:44:44.582Z,100391.10
2018-05-27T21:47:12.402Z,100384.08
2018-05-27T21:49:40.268Z,100380.77
2018-05-27T21:52:07.982Z,100379.08
2018-05-27T21:54:35.797Z,100378.38
2018-05-27T21:57:03.562Z,100391.20
2018-05-27T21:59:31.224Z,100401.34
2018-05-27T22:01:58.950Z,100414.72
2018-05-27T22:04:26.741Z,100418.62
2018-05-27T22:06:54.518Z,100426.73
2018-05-27T22:09:22.382Z,100430.00
2018-05-27T22:11:50.148Z,100422.75
2018-05-27T22:14:17.912Z,100420.74
2018-05-27T22:16:45.574Z,100418.38
2018-05-27T22:19:13.340Z,100419.02
2018-05-27T22:21:41.104Z,100428.53
2018-05-27T22:24:08.928Z,100433.89
2018-05-27T22:26:36.736Z,100419.00
2018-05-27T22:29:04.560Z,100417.96
2018-05-27T22:31:32.367Z,100418.89
2018-05-27T22:34:00.094Z,100415.84
2018-05-27T22:36:27.837Z,100413.25
2018-05-27T22:38:55.558Z,100412.08
2018-05-27T22:41:23.326Z,100410.97
2018-05-27T22:43:51.088Z,100405.47
2018-05-27T22:46:18.852Z,100401.39
2018-05-27T22:48:46.571Z,100407.67
2018-05-27T22:51:14.383Z,100411.64
2018-05-27T22:53:42.105Z,100418.92
2018-05-27T22:56:09.911Z,100410.58
2018-05-27T22:58:37.613Z,100413.81
2018-05-27T23:01:05.443Z,100401.48
2018-05-27T23:03:33.150Z,100398.75
2018-05-27T23:06:00.858Z,100408.70
2018-05-27T23:08:28.529Z,100396.89
2018-05-27T23:10:56.249Z,100398.41
2018-05-27T23:13:23.953Z,100403.96
2018-05-27T23:15:52.026Z,100407.08
2018-05-27T23:18:19.754Z,100406.77
2018-05-27T23:20:47.555Z,100410.13
2018-05-27T23:23:15.321Z,100407.59
2018-05-27T23:25:43.085Z,100407.48
2018-05-27T23:28:10.745Z,100406.75
2018-05-27T23:30:38.409Z,100412.17
2018-05-27T23:33:06.072Z,100415.03
2018-05-27T23:35:33.938Z,100413.63
2018-05-27T23:38:01.702Z,100426.17
2018-05-27T23:40:29.364Z,100426.89
2018-05-27T23:42:57.025Z,100431.65
2018-05-27T23:45:24.710Z,100435.45
2018-05-27T23:47:52.555Z,100431.69
2018-05-27T23:50:20.423Z,100435.69
2018-05-27T23:52:48.392Z,100433.75
2018-05-27T23:55:16.203Z,100433.47
2018-05-27T23:57:43.920Z,100426.56
